Time;durP1;ratioP1;P1;durP2;ratioP2;P2;SDS_P1;SDS_P2;PMS_P1;PMS_P2;Temp;Humidity;BMP_temperature;BMP_pressure;BME280_temperature;BME280_humidity;BME280_pressure;Samples;Min_cycle;Max_cycle;Signal;HPM_P1;HPM_P2
2023/10/19 00:01:33;;;;;;;18.65;2.95;;;16.80;99.90;;;;;;4254509;27;20391;-56
2023/10/19 00:03:36;;;;;;;12.35;3.30;;;16.90;99.90;;;;;;4248715;27;20089;-56
2023/10/19 00:05:38;;;;;;;10.65;2.17;;;16.90;99.90;;;;;;4248953;27;20140;-55
2023/10/19 00:07:41;;;;;;;13.18;3.60;;;16.90;99.90;;;;;;4248939;27;20536;-55
2023/10/19 00:09:52;;;;;;;12.75;2.90;;;16.90;99.90;;;;;;4248935;27;20048;-56
2023/10/19 00:11:55;;;;;;;16.85;3.53;;;16.90;99.90;;;;;;4248985;27;20047;-56
2023/10/19 00:13:58;;;;;;;12.63;2.90;;;16.80;99.90;;;;;;4248994;27;20122;-56
2023/10/19 00:16:00;;;;;;;14.43;3.28;;;16.80;99.90;;;;;;4248815;27;20057;-56
2023/10/19 00:18:36;;;;;;;10.55;2.47;;;16.90;99.90;;;;;;4259557;27;20488;-56
2023/10/19 00:20:51;;;;;;;16.40;2.92;;;16.90;99.90;;;;;;4262210;27;20351;-56
2023/10/19 00:22:53;;;;;;;11.48;2.45;;;16.80;99.90;;;;;;4265674;27;20042;-57
2023/10/19 00:24:59;;;;;;;12.15;2.60;;;16.90;99.90;;;;;;4265816;27;20039;-56
2023/10/19 00:27:15;;;;;;;15.68;3.08;;;16.90;99.90;;;;;;4265954;27;20046;-56
2023/10/19 00:29:30;;;;;;;22.15;3.55;;;16.90;99.90;;;;;;4265719;27;20047;-56
2023/10/19 00:31:36;;;;;;;15.80;3.10;;;16.90;99.90;;;;;;4265737;27;20034;-56
2023/10/19 00:33:40;;;;;;;17.33;3.00;;;16.90;99.90;;;;;;4265463;27;20046;-56
2023/10/19 00:35:51;;;;;;;12.68;2.97;;;16.90;99.90;;;;;;4247460;27;20512;-57
2023/10/19 00:37:58;;;;;;;16.10;3.63;;;16.90;99.90;;;;;;4265830;27;20125;-55
2023/10/19 00:40:27;;;;;;;10.95;3.20;;;16.90;99.90;;;;;;4265661;27;20054;-56
2023/10/19 00:42:30;;;;;;;16.90;2.65;;;16.90;99.90;;;;;;4265464;27;20046;-56
2023/10/19 00:44:38;;;;;;;10.50;2.28;;;17.00;99.90;;;;;;4265791;27;20042;-56
2023/10/19 00:48:49;;;;;;;13.70;2.95;;;17.00;99.90;;;;;;4265172;27;20465;-57
2023/10/19 00:50:53;;;;;;;13.13;2.97;;;16.90;99.90;;;;;;4247052;27;20055;-56
2023/10/19 00:52:57;;;;;;;11.48;3.10;;;17.00;99.90;;;;;;4265225;27;20107;-57
2023/10/19 00:55:04;;;;;;;16.90;3.53;;;17.00;99.90;;;;;;4265148;27;20039;-57
2023/10/19 00:57:08;;;;;;;12.18;2.78;;;17.00;99.90;;;;;;4265231;27;20038;-55
2023/10/19 00:59:14;;;;;;;15.82;3.67;;;17.00;99.90;;;;;;4265148;27;20046;-55
2023/10/19 01:01:19;;;;;;;13.07;3.22;;;17.00;99.90;;;;;;4255342;27;20481;-57
2023/10/19 01:03:22;;;;;;;15.00;2.90;;;16.90;99.90;;;;;;4248168;27;20404;-56
2023/10/19 01:05:24;;;;;;;16.15;3.22;;;16.90;99.90;;;;;;4248030;27;20500;-55
2023/10/19 01:07:28;;;;;;;16.17;2.97;;;16.90;99.90;;;;;;4248278;27;20047;-56
2023/10/19 01:09:34;;;;;;;15.32;2.70;;;17.00;99.90;;;;;;4247992;27;20059;-58
2023/10/19 01:11:38;;;;;;;17.90;4.07;;;17.00;99.90;;;;;;4246908;27;20043;-58
2023/10/19 01:13:51;;;;;;;15.50;2.90;;;17.00;99.90;;;;;;4247920;27;20508;-59
2023/10/19 01:15:54;;;;;;;13.07;2.97;;;16.90;99.90;;;;;;4247549;27;20043;-59
2023/10/19 01:17:57;;;;;;;16.67;3.00;;;16.90;99.90;;;;;;4257857;27;20043;-58
2023/10/19 01:20:00;;;;;;;21.63;3.63;;;16.90;99.90;;;;;;4264810;27;20049;-57
2023/10/19 01:22:04;;;;;;;15.75;2.50;;;16.90;99.90;;;;;;4265570;27;20058;-58
2023/10/19 01:24:09;;;;;;;18.95;3.25;;;17.00;99.90;;;;;;4265558;27;20126;-60
2023/10/19 01:26:13;;;;;;;14.60;3.30;;;17.00;99.90;;;;;;4265001;27;20054;-58
2023/10/19 01:28:25;;;;;;;21.15;3.78;;;17.00;99.90;;;;;;4265045;27;20107;-58
2023/10/19 01:30:28;;;;;;;24.38;4.88;;;17.00;99.90;;;;;;4264762;27;20042;-59
2023/10/19 01:32:30;;;;;;;19.20;3.35;;;17.00;99.90;;;;;;4264828;27;20047;-59
2023/10/19 01:34:35;;;;;;;12.80;3.00;;;17.00;99.90;;;;;;4264888;27;20123;-58
2023/10/19 01:36:43;;;;;;;19.30;3.88;;;17.00;99.90;;;;;;4264632;27;20053;-59
2023/10/19 01:38:54;;;;;;;16.67;3.53;;;17.00;99.90;;;;;;4264835;27;20078;-58
2023/10/19 01:40:59;;;;;;;27.52;4.28;;;17.00;99.90;;;;;;4264824;27;20042;-58
2023/10/19 01:43:03;;;;;;;15.20;2.97;;;17.00;99.90;;;;;;4264607;27;20080;-59
2023/10/19 01:45:06;;;;;;;20.17;4.07;;;17.00;99.90;;;;;;4264253;27;20068;-60
2023/10/19 01:47:09;;;;;;;15.38;3.30;;;17.00;99.90;;;;;;4264503;27;20070;-59
2023/10/19 01:49:25;;;;;;;17.05;3.80;;;17.00;99.90;;;;;;4264718;27;20043;-58
2023/10/19 01:51:30;;;;;;;18.52;3.60;;;17.00;99.90;;;;;;4264633;27;20042;-59
2023/10/19 01:53:33;;;;;;;14.80;4.10;;;17.00;99.90;;;;;;4264255;27;20076;-59
2023/10/19 01:55:37;;;;;;;23.52;4.90;;;17.00;99.90;;;;;;4264548;27;20043;-59
2023/10/19 01:57:41;;;;;;;20.48;3.70;;;16.90;99.90;;;;;;4264354;27;20128;-58
2023/10/19 01:59:44;;;;;;;15.02;3.50;;;16.90;99.90;;;;;;4264075;27;20039;-59
2023/10/19 02:01:46;;;;;;;19.80;3.63;;;17.00;99.90;;;;;;4250530;27;20186;-58
2023/10/19 02:03:54;;;;;;;21.95;4.28;;;17.00;99.90;;;;;;4247166;28;20485;-58
2023/10/19 02:05:59;;;;;;;20.48;4.53;;;17.00;99.90;;;;;;4228875;28;20047;-59
2023/10/19 02:08:03;;;;;;;24.23;4.57;;;17.00;99.90;;;;;;4247089;28;20049;-59
2023/10/19 02:10:07;;;;;;;17.52;3.90;;;16.90;99.90;;;;;;4247142;28;20114;-59
2023/10/19 02:12:09;;;;;;;;;;;17.00;99.90;;;;;;4247964;28;20047;-59
2023/10/19 02:14:14;;;;;;;18.17;4.03;;;16.90;99.90;;;;;;4247049;28;19923;-58
2023/10/19 02:16:18;;;;;;;15.73;3.15;;;16.90;99.90;;;;;;4247490;28;20053;-63
2023/10/19 02:18:21;;;;;;;20.95;4.40;;;16.90;99.90;;;;;;4260305;27;20045;-59
2023/10/19 02:20:24;;;;;;;18.55;3.97;;;16.90;99.90;;;;;;4264397;27;20414;-59
2023/10/19 02:22:42;;;;;;;15.98;3.92;;;16.90;99.90;;;;;;4265355;27;20100;-58
2023/10/19 02:24:44;;;;;;;28.08;4.80;;;16.90;99.90;;;;;;4267733;27;20042;-59
2023/10/19 02:26:51;;;;;;;17.00;3.78;;;16.90;99.90;;;;;;4267921;27;20110;-58
2023/10/19 02:28:55;;;;;;;19.67;3.80;;;16.90;99.90;;;;;;4267478;27;20050;-59
2023/10/19 02:31:14;;;;;;;19.77;4.00;;;16.90;99.90;;;;;;4249639;27;20080;-59
2023/10/19 02:33:16;;;;;;;18.30;3.35;;;16.90;99.90;;;;;;4268449;27;20443;-59
2023/10/19 02:35:18;;;;;;;17.15;3.75;;;16.90;99.90;;;;;;4270180;27;20043;-65
2023/10/19 02:37:20;;;;;;;14.77;3.63;;;16.90;99.90;;;;;;4271149;27;20038;-60
2023/10/19 02:39:28;;;;;;;20.95;4.53;;;16.90;99.90;;;;;;4271105;27;20054;-60
2023/10/19 02:41:30;;;;;;;22.65;3.85;;;16.90;99.90;;;;;;4269438;27;20070;-59
2023/10/19 02:43:34;;;;;;;19.88;4.38;;;16.90;99.90;;;;;;4270284;27;20103;-60
2023/10/19 02:45:36;;;;;;;21.00;4.22;;;16.90;99.90;;;;;;4270539;27;20107;-59
2023/10/19 02:47:42;;;;;;;20.35;4.13;;;16.90;99.90;;;;;;4267888;27;20043;-59
2023/10/19 02:49:51;;;;;;;18.15;3.35;;;16.90;99.90;;;;;;4267488;27;20046;-60
2023/10/19 02:51:53;;;;;;;18.98;3.95;;;16.90;99.90;;;;;;4267661;27;20063;-58
2023/10/19 02:53:56;;;;;;;20.67;3.95;;;16.90;99.90;;;;;;4267114;27;20051;-59
2023/10/19 02:56:01;;;;;;;22.30;4.70;;;16.90;99.90;;;;;;4267442;27;20121;-58
2023/10/19 02:58:05;;;;;;;19.05;4.03;;;16.90;99.90;;;;;;4267163;27;20400;-59
2023/10/19 03:00:11;;;;;;;23.50;4.05;;;16.90;99.90;;;;;;4267085;27;20051;-59
2023/10/19 03:04:17;;;;;;;20.38;4.00;;;16.90;99.90;;;;;;4249912;27;20044;-59
2023/10/19 03:06:21;;;;;;;23.10;4.10;;;16.90;99.90;;;;;;4250056;27;20067;-59
2023/10/19 03:08:26;;;;;;;30.05;4.03;;;16.90;99.90;;;;;;4250319;27;20043;-59
2023/10/19 03:10:41;;;;;;;17.70;3.80;;;16.90;99.90;;;;;;4250064;27;20043;-59
2023/10/19 03:12:44;;;;;;;19.67;4.45;;;16.90;99.90;;;;;;4250854;27;20057;-59
2023/10/19 03:14:48;;;;;;;16.90;4.13;;;16.90;99.90;;;;;;4251391;27;20079;-60
2023/10/19 03:16:50;;;;;;;16.45;3.85;;;16.80;99.90;;;;;;4253182;27;20057;-59
2023/10/19 03:18:54;;;;;;;18.08;3.70;;;16.80;99.90;;;;;;4269151;27;20104;-60
2023/10/19 03:20:58;;;;;;;23.15;3.58;;;16.80;99.90;;;;;;4268058;27;20480;-60
2023/10/19 03:23:01;;;;;;;22.45;4.93;;;16.80;99.90;;;;;;4267215;27;20090;-59
2023/10/19 03:27:25;;;;;;;19.17;3.70;;;16.80;99.90;;;;;;4266401;27;20155;-59
2023/10/19 03:29:38;;;;;;;18.38;3.63;;;16.80;99.90;;;;;;4266750;27;20046;-59
2023/10/19 03:31:43;;;;;;;23.23;4.20;;;16.80;99.90;;;;;;4266721;27;20046;-58
2023/10/19 03:33:49;;;;;;;21.90;3.80;;;16.80;99.90;;;;;;4266459;27;20060;-59
2023/10/19 03:35:51;;;;;;;16.35;4.13;;;16.80;99.90;;;;;;4266502;27;20051;-58
2023/10/19 03:37:58;;;;;;;15.63;3.53;;;16.80;99.90;;;;;;4266579;27;20122;-60
2023/10/19 03:40:05;;;;;;;21.17;4.57;;;16.80;99.90;;;;;;4266745;27;20491;-58
2023/10/19 03:42:13;;;;;;;22.63;4.22;;;16.80;99.90;;;;;;4266687;27;20051;-59
2023/10/19 03:44:24;;;;;;;16.98;3.45;;;16.80;99.90;;;;;;4266717;27;20043;-59
2023/10/19 03:46:28;;;;;;;19.42;3.75;;;16.70;99.90;;;;;;4266683;27;20385;-64
2023/10/19 03:48:37;;;;;;;24.52;4.05;;;16.70;99.90;;;;;;4248199;27;20085;-58
2023/10/19 03:50:40;;;;;;;22.92;4.25;;;16.70;99.90;;;;;;4266812;27;20043;-59
2023/10/19 03:52:42;;;;;;;25.67;4.57;;;16.70;99.90;;;;;;4266301;27;20458;-59
2023/10/19 03:54:47;;;;;;;20.63;4.45;;;16.70;99.90;;;;;;4265621;27;20076;-58
2023/10/19 03:56:50;;;;;;;27.42;4.70;;;16.60;99.90;;;;;;4266415;27;20125;-58
2023/10/19 03:58:52;;;;;;;24.48;4.10;;;16.60;99.90;;;;;;4266426;27;20042;-59
2023/10/19 04:01:01;;;;;;;16.23;3.70;;;16.60;99.90;;;;;;4259921;27;20126;-58
2023/10/19 04:03:04;;;;;;;19.77;4.03;;;16.70;99.90;;;;;;4231042;28;20572;-59
2023/10/19 04:05:09;;;;;;;20.48;3.72;;;16.60;99.90;;;;;;4249032;27;20086;-59
2023/10/19 04:07:18;;;;;;;24.13;4.00;;;16.60;99.90;;;;;;4249153;27;20439;-59
2023/10/19 04:09:20;;;;;;;14.93;3.33;;;16.60;99.90;;;;;;4249119;27;20100;-59
2023/10/19 04:11:32;;;;;;;18.10;3.60;;;16.60;99.90;;;;;;4262071;27;20043;-59
2023/10/19 04:13:36;;;;;;;29.60;4.65;;;16.60;99.90;;;;;;4265929;27;20047;-57
2023/10/19 04:15:38;;;;;;;20.23;3.40;;;16.60;99.90;;;;;;4266216;27;20043;-59
2023/10/19 04:17:42;;;;;;;19.13;3.80;;;16.60;99.90;;;;;;4258433;27;20043;-59
2023/10/19 04:19:44;;;;;;;22.73;4.72;;;16.50;99.90;;;;;;4248856;27;20044;-59
2023/10/19 04:21:46;;;;;;;15.77;3.72;;;16.50;99.90;;;;;;4248778;27;20043;-59
2023/10/19 04:23:48;;;;;;;20.45;4.38;;;16.60;99.90;;;;;;4230357;28;20059;-59
2023/10/19 04:25:51;;;;;;;17.45;4.22;;;16.50;99.90;;;;;;4248667;27;20446;-58
2023/10/19 04:27:56;;;;;;;18.88;3.80;;;16.50;99.90;;;;;;4248530;27;20047;-59
2023/10/19 04:29:59;;;;;;;28.40;4.80;;;16.50;99.90;;;;;;4248846;27;20050;-59
2023/10/19 04:32:01;;;;;;;29.88;4.45;;;16.40;99.90;;;;;;4248630;27;20054;-58
2023/10/19 04:34:07;;;;;;;24.00;4.18;;;16.40;99.90;;;;;;4248359;27;20126;-59
2023/10/19 04:36:15;;;;;;;20.35;3.75;;;16.50;99.90;;;;;;4248581;27;20043;-59
2023/10/19 04:38:17;;;;;;;27.65;4.13;;;16.50;99.90;;;;;;4248377;27;20043;-59
2023/10/19 04:40:21;;;;;;;24.33;4.15;;;16.50;99.90;;;;;;4248078;27;20404;-59
2023/10/19 04:42:23;;;;;;;24.40;4.03;;;16.40;99.90;;;;;;4248249;27;20055;-59
2023/10/19 04:44:26;;;;;;;13.95;3.83;;;16.40;99.90;;;;;;4248661;27;20067;-59
2023/10/19 04:46:29;;;;;;;21.60;4.25;;;16.40;99.90;;;;;;4247411;27;20122;-59
2023/10/19 04:48:31;;;;;;;20.33;4.20;;;16.40;99.90;;;;;;4248223;27;20050;-59
2023/10/19 04:50:33;;;;;;;19.60;4.13;;;16.50;99.90;;;;;;4248422;27;20485;-57
2023/10/19 04:52:36;;;;;;;22.00;3.90;;;16.50;99.90;;;;;;4248288;27;20058;-59
2023/10/19 04:54:38;;;;;;;26.08;4.57;;;16.40;99.90;;;;;;4247877;27;20406;-58
2023/10/19 04:56:40;;;;;;;21.13;4.05;;;16.50;99.90;;;;;;4248112;27;20047;-58
2023/10/19 04:58:42;;;;;;;21.67;3.90;;;16.50;99.90;;;;;;4247956;27;20043;-60
2023/10/19 05:00:46;;;;;;;15.73;3.17;;;16.50;99.90;;;;;;4229830;28;20552;-59
2023/10/19 05:02:49;;;;;;;19.80;4.37;;;16.50;99.90;;;;;;4248459;27;20120;-59
2023/10/19 05:04:51;;;;;;;16.63;3.35;;;16.50;99.90;;;;;;4248114;27;20043;-59
2023/10/19 05:06:53;;;;;;;18.55;3.83;;;16.50;99.90;;;;;;4247929;27;20381;-59
2023/10/19 05:08:57;;;;;;;20.88;3.90;;;16.50;99.90;;;;;;4247768;27;20378;-58
2023/10/19 05:10:59;;;;;;;15.80;3.88;;;16.50;99.90;;;;;;4248089;27;20054;-59
2023/10/19 05:13:01;;;;;;;20.55;3.65;;;16.50;99.90;;;;;;4247900;27;20043;-59
2023/10/19 05:15:05;;;;;;;20.30;4.03;;;16.50;99.90;;;;;;4248027;27;20070;-59
2023/10/19 05:17:09;;;;;;;19.23;3.83;;;16.50;99.90;;;;;;4250972;27;20452;-59
2023/10/19 05:19:12;;;;;;;20.90;4.28;;;16.50;99.90;;;;;;4265060;27;20113;-59
2023/10/19 05:21:14;;;;;;;20.20;4.05;;;16.40;99.90;;;;;;4264690;27;20062;-59
2023/10/19 05:23:16;;;;;;;28.33;4.93;;;16.40;99.90;;;;;;4264666;27;20046;-59
2023/10/19 05:25:18;;;;;;;17.85;3.53;;;16.40;99.90;;;;;;4264962;27;20069;-59
2023/10/19 05:27:20;;;;;;;20.38;4.20;;;16.50;99.90;;;;;;4264971;27;20133;-58
2023/10/19 05:29:23;;;;;;;18.25;4.60;;;16.40;99.90;;;;;;4264683;27;20043;-59
2023/10/19 05:31:27;;;;;;;22.60;5.10;;;16.30;99.90;;;;;;4265031;27;20043;-58
2023/10/19 05:33:32;;;;;;;20.42;4.13;;;16.40;99.90;;;;;;4264587;27;20050;-59
2023/10/19 05:35:40;;;;;;;17.05;3.75;;;16.40;99.90;;;;;;4263939;27;20046;-59
2023/10/19 05:37:42;;;;;;;18.77;4.05;;;16.40;99.90;;;;;;4264513;27;20068;-59
2023/10/19 05:39:44;;;;;;;14.70;3.50;;;16.30;99.90;;;;;;4264709;27;20047;-59
2023/10/19 05:41:46;;;;;;;16.48;3.97;;;16.40;99.90;;;;;;4264902;27;20062;-58
2023/10/19 05:43:49;;;;;;;18.50;4.05;;;16.30;99.90;;;;;;4264886;27;20074;-59
2023/10/19 05:45:51;;;;;;;22.45;4.07;;;16.40;99.90;;;;;;4264648;27;20050;-59
2023/10/19 05:47:54;;;;;;;12.88;4.00;;;16.40;99.90;;;;;;4265212;27;20047;-59
2023/10/19 05:49:58;;;;;;;18.23;3.92;;;16.40;99.90;;;;;;4266082;27;20046;-59
2023/10/19 05:52:03;;;;;;;16.38;4.57;;;16.40;99.90;;;;;;4266280;27;20056;-65
2023/10/19 05:54:05;;;;;;;18.65;4.57;;;16.40;99.90;;;;;;4266138;27;20054;-59
2023/10/19 05:56:07;;;;;;;16.73;3.90;;;16.40;99.90;;;;;;4265819;27;20085;-60
2023/10/19 05:58:09;;;;;;;15.05;3.85;;;16.40;99.90;;;;;;4265779;27;20050;-58
2023/10/19 06:00:12;;;;;;;13.15;4.07;;;16.40;99.90;;;;;;4264512;27;20054;-60
2023/10/19 06:02:15;;;;;;;16.08;4.10;;;16.40;99.90;;;;;;4248196;27;20503;-59
2023/10/19 06:04:17;;;;;;;21.27;4.18;;;16.40;99.90;;;;;;4248456;28;20043;-59
2023/10/19 06:06:34;;;;;;;16.25;4.55;;;16.50;99.90;;;;;;4231743;28;20043;-60
2023/10/19 06:08:36;;;;;;;14.15;3.78;;;16.50;99.90;;;;;;4247409;28;20051;-58
2023/10/19 06:10:39;;;;;;;13.63;3.35;;;16.50;99.90;;;;;;4247835;28;20131;-59
2023/10/19 06:12:41;;;;;;;20.02;4.47;;;16.50;99.90;;;;;;4247289;28;20053;-59
2023/10/19 06:14:44;;;;;;;17.40;4.47;;;16.50;99.90;;;;;;4247455;28;20047;-59
2023/10/19 06:16:46;;;;;;;16.23;5.22;;;16.50;99.90;;;;;;4247332;27;20122;-59
2023/10/19 06:18:48;;;;;;;16.48;4.22;;;16.50;99.90;;;;;;4264193;27;20114;-59
2023/10/19 06:20:51;;;;;;;19.27;4.55;;;16.50;99.90;;;;;;4264315;27;20047;-59
2023/10/19 06:22:56;;;;;;;20.55;4.60;;;16.50;99.90;;;;;;4264397;27;20087;-59
2023/10/19 06:24:58;;;;;;;;;;;16.40;99.90;;;;;;4265115;27;20316;-58
2023/10/19 06:27:00;;;;;;;16.95;4.75;;;16.40;99.90;;;;;;4264266;27;20012;-59
2023/10/19 06:29:03;;;;;;;15.63;3.58;;;16.30;99.90;;;;;;4264393;27;20049;-59
2023/10/19 06:31:05;;;;;;;13.70;4.00;;;16.30;99.90;;;;;;4264203;27;20042;-59
2023/10/19 06:33:08;;;;;;;15.05;4.25;;;16.40;99.90;;;;;;4264049;27;20049;-58
2023/10/19 06:35:11;;;;;;;16.98;4.65;;;16.40;99.90;;;;;;4263847;27;20524;-59
2023/10/19 06:37:13;;;;;;;13.85;4.03;;;16.40;99.90;;;;;;4264538;27;20054;-59
2023/10/19 06:39:17;;;;;;;15.07;4.15;;;16.40;99.90;;;;;;4264631;27;20050;-59
2023/10/19 06:41:20;;;;;;;17.33;4.60;;;16.40;99.90;;;;;;4264663;27;20049;-59
2023/10/19 06:43:27;;;;;;;16.48;4.93;;;16.40;99.90;;;;;;4264920;27;20042;-59
2023/10/19 06:45:33;;;;;;;16.17;5.05;;;16.40;99.90;;;;;;4264225;27;20057;-60
2023/10/19 06:47:38;;;;;;;17.88;4.57;;;16.40;99.90;;;;;;4264535;27;20046;-60
2023/10/19 06:49:40;;;;;;;11.98;3.90;;;16.40;99.90;;;;;;4245761;28;20404;-58
2023/10/19 06:51:43;;;;;;;16.65;4.72;;;16.40;99.90;;;;;;4264169;27;20039;-59
2023/10/19 06:53:45;;;;;;;15.40;4.40;;;16.40;99.90;;;;;;4263788;27;20065;-59
2023/10/19 06:55:49;;;;;;;16.17;5.10;;;16.40;99.90;;;;;;4264480;27;20047;-60
2023/10/19 06:57:52;;;;;;;11.85;4.03;;;16.50;99.90;;;;;;4264118;27;20043;-58
2023/10/19 06:59:54;;;;;;;15.93;4.43;;;16.50;99.90;;;;;;4264057;27;20493;-58
2023/10/19 07:01:57;;;;;;;12.70;4.10;;;16.50;99.90;;;;;;4248869;27;20484;-60
2023/10/19 07:03:59;;;;;;;16.75;3.65;;;16.50;99.90;;;;;;4246441;28;20096;-57
2023/10/19 07:06:02;;;;;;;14.32;4.30;;;16.50;99.90;;;;;;4246830;28;20092;-58
2023/10/19 07:08:10;;;;;;;19.30;4.63;;;16.50;99.90;;;;;;4247232;28;20055;-58
2023/10/19 07:10:13;;;;;;;14.98;4.05;;;16.50;99.90;;;;;;4248664;27;20043;-58
2023/10/19 07:12:18;;;;;;;15.30;3.92;;;16.60;99.90;;;;;;4250019;27;20133;-59
2023/10/19 07:14:24;;;;;;;14.57;3.97;;;16.60;99.90;;;;;;4249599;27;20110;-59
2023/10/19 07:16:26;;;;;;;;;;;16.50;99.90;;;;;;4250473;27;20134;-60
2023/10/19 07:18:28;;;;;;;13.45;3.97;;;16.50;99.90;;;;;;4261465;27;19950;-59
2023/10/19 07:20:38;;;;;;;12.10;3.35;;;16.50;99.90;;;;;;4249772;27;20054;-59
2023/10/19 07:22:42;;;;;;;16.25;4.03;;;16.50;99.90;;;;;;4249911;27;20051;-58
2023/10/19 07:24:44;;;;;;;15.48;4.32;;;16.50;99.90;;;;;;4249974;27;20047;-58
2023/10/19 07:27:04;;;;;;;13.85;3.90;;;16.50;99.90;;;;;;4231494;28;20481;-59
2023/10/19 07:29:10;;;;;;;10.60;3.65;;;16.60;99.90;;;;;;4249999;27;20071;-59
2023/10/19 07:31:15;;;;;;;16.40;4.05;;;16.50;99.90;;;;;;4249940;27;20484;-59
2023/10/19 07:33:19;;;;;;;10.80;3.60;;;16.50;99.90;;;;;;4249519;27;20395;-59
2023/10/19 07:35:22;;;;;;;13.23;3.67;;;16.50;99.90;;;;;;4249907;27;20055;-58
2023/10/19 07:37:28;;;;;;;17.10;4.05;;;16.50;99.90;;;;;;4249559;27;20085;-63
2023/10/19 07:39:33;;;;;;;11.57;3.88;;;16.50;99.90;;;;;;4249719;27;20122;-58
2023/10/19 07:41:36;;;;;;;13.98;4.25;;;16.60;99.90;;;;;;4249313;27;20039;-59
2023/10/19 07:43:38;;;;;;;16.90;3.80;;;16.60;99.90;;;;;;4249384;27;20039;-59
2023/10/19 07:45:42;;;;;;;9.43;3.13;;;16.60;99.90;;;;;;4249284;27;20043;-58
2023/10/19 07:47:46;;;;;;;9.65;3.40;;;16.60;99.90;;;;;;4249003;27;20047;-59
2023/10/19 07:49:51;;;;;;;12.18;3.42;;;16.60;99.90;;;;;;4249131;27;20485;-59
2023/10/19 07:51:53;;;;;;;14.98;2.88;;;16.60;99.90;;;;;;4249546;27;20529;-58
2023/10/19 07:53:59;;;;;;;12.32;3.20;;;16.70;99.90;;;;;;4215505;28;20071;-59
2023/10/19 07:56:03;;;;;;;13.52;3.40;;;16.70;99.90;;;;;;4215255;28;20130;-59
2023/10/19 07:58:08;;;;;;;10.25;3.35;;;16.70;99.90;;;;;;4215640;28;20048;-59
2023/10/19 08:00:15;;;;;;;15.18;3.25;;;16.70;99.90;;;;;;4215457;28;20068;-59
2023/10/19 08:02:19;;;;;;;13.85;3.10;;;16.80;99.90;;;;;;4232025;28;20456;-58
2023/10/19 08:04:21;;;;;;;10.85;2.70;;;16.80;99.90;;;;;;4232118;28;20047;-58
2023/10/19 08:06:23;;;;;;;11.35;3.42;;;16.90;99.90;;;;;;4232019;28;20047;-70
2023/10/19 08:08:25;;;;;;;9.55;2.55;;;16.90;99.90;;;;;;4232138;28;20140;-59
2023/10/19 08:10:27;;;;;;;14.85;3.28;;;16.90;99.90;;;;;;4232172;28;20048;-59
2023/10/19 08:12:30;;;;;;;12.20;2.92;;;17.00;99.90;;;;;;4232127;28;20047;-59
2023/10/19 08:14:33;;;;;;;9.75;2.70;;;17.00;99.90;;;;;;4232039;28;20043;-58
2023/10/19 08:16:35;;;;;;;7.97;2.85;;;17.00;99.90;;;;;;4230394;28;20078;-58
2023/10/19 08:18:39;;;;;;;8.98;2.72;;;17.00;99.90;;;;;;4231926;28;20048;-58
2023/10/19 08:20:42;;;;;;;8.27;2.40;;;17.10;99.90;;;;;;4231567;28;20043;-60
2023/10/19 08:22:47;;;;;;;13.63;2.88;;;17.00;99.90;;;;;;4232064;28;20126;-59
2023/10/19 08:24:49;;;;;;;12.90;2.85;;;17.00;99.90;;;;;;4232147;28;20051;-59
2023/10/19 08:26:51;;;;;;;12.45;2.80;;;17.00;99.90;;;;;;4232133;28;20051;-59
2023/10/19 08:28:53;;;;;;;10.73;3.10;;;17.10;99.90;;;;;;4231719;28;20039;-58
2023/10/19 08:31:01;;;;;;;6.63;2.15;;;17.10;99.90;;;;;;4231663;28;20055;-58
2023/10/19 08:33:08;;;;;;;9.55;2.00;;;17.10;99.90;;;;;;4230529;28;20066;-58
2023/10/19 08:35:24;;;;;;;15.85;2.95;;;17.20;99.90;;;;;;4231667;28;20489;-58
2023/10/19 08:37:26;;;;;;;10.23;2.30;;;17.20;99.90;;;;;;4231725;28;20047;-59
2023/10/19 08:39:35;;;;;;;11.88;2.85;;;17.20;99.90;;;;;;4231583;28;20093;-57
2023/10/19 08:41:39;;;;;;;8.07;2.22;;;17.30;99.90;;;;;;4231713;28;20054;-58
2023/10/19 08:43:41;;;;;;;9.37;2.67;;;17.30;99.90;;;;;;4231836;28;20047;-58
2023/10/19 08:45:44;;;;;;;10.85;2.10;;;17.40;99.90;;;;;;4231161;28;20092;-58
2023/10/19 08:47:56;;;;;;;16.80;2.78;;;17.50;99.90;;;;;;4231430;28;20055;-58
2023/10/19 08:49:59;;;;;;;8.18;2.13;;;17.60;99.90;;;;;;4231389;28;20047;-59
2023/10/19 08:52:05;;;;;;;9.20;2.47;;;17.60;99.90;;;;;;4230702;27;20420;-58
2023/10/19 08:54:10;;;;;;;7.70;2.40;;;17.70;99.90;;;;;;4248325;27;20075;-59
2023/10/19 08:56:14;;;;;;;13.20;2.45;;;17.70;99.90;;;;;;4248329;27;20047;-59
2023/10/19 08:58:16;;;;;;;10.50;2.17;;;17.70;99.90;;;;;;4248592;27;20388;-58
2023/10/19 09:00:24;;;;;;;9.85;2.40;;;17.80;99.90;;;;;;4246372;27;20047;-58
2023/10/19 09:02:27;;;;;;;10.20;2.40;;;17.80;99.90;;;;;;4231301;28;20459;-59
2023/10/19 09:04:29;;;;;;;6.90;2.42;;;17.80;99.90;;;;;;4232022;28;20457;-59
2023/10/19 09:06:41;;;;;;;9.90;2.38;;;17.80;99.90;;;;;;4233971;28;20054;-59
2023/10/19 09:08:47;;;;;;;8.85;2.50;;;17.90;99.90;;;;;;4234268;27;20044;-59
2023/10/19 09:10:53;;;;;;;6.82;2.00;;;17.90;99.90;;;;;;4237744;27;20067;-58
2023/10/19 09:13:01;;;;;;;6.63;1.77;;;17.90;99.90;;;;;;4248367;27;20039;-59
2023/10/19 09:15:04;;;;;;;7.88;2.35;;;17.90;99.90;;;;;;4247626;27;20159;-59
2023/10/19 09:17:07;;;;;;;12.90;2.15;;;18.00;99.90;;;;;;4248067;27;20059;-59
2023/10/19 09:19:10;;;;;;;11.02;1.92;;;18.00;99.90;;;;;;4248102;27;20039;-59
2023/10/19 09:21:25;;;;;;;11.15;2.53;;;18.00;99.90;;;;;;4248006;27;20075;-60
2023/10/19 09:23:28;;;;;;;5.85;1.92;;;18.00;99.90;;;;;;4248086;27;20464;-59
2023/10/19 09:25:32;;;;;;;7.70;2.33;;;18.00;99.90;;;;;;4246711;27;20047;-60
2023/10/19 09:27:34;;;;;;;7.97;1.90;;;18.00;99.90;;;;;;4248066;27;20043;-60
2023/10/19 09:29:36;;;;;;;10.52;2.28;;;18.10;99.90;;;;;;4247768;27;20058;-60
2023/10/19 09:31:41;;;;;;;5.97;2.35;;;18.20;99.90;;;;;;4247705;27;20415;-60
2023/10/19 09:33:44;;;;;;;;;;;18.30;99.90;;;;;;4248099;27;20051;-60
2023/10/19 09:35:48;;;;;;;7.72;2.22;;;18.40;99.90;;;;;;4247477;27;20280;-60
2023/10/19 09:37:50;;;;;;;7.50;2.17;;;18.50;99.90;;;;;;4247671;27;20126;-60
2023/10/19 09:39:52;;;;;;;6.25;2.20;;;18.60;99.90;;;;;;4247860;27;20071;-60
2023/10/19 09:41:59;;;;;;;7.07;2.28;;;18.60;99.90;;;;;;4247730;27;20067;-60
2023/10/19 09:44:06;;;;;;;5.32;1.75;;;18.70;99.90;;;;;;4247276;27;20043;-60
2023/10/19 09:46:13;;;;;;;13.05;2.40;;;18.70;99.90;;;;;;4247790;27;20070;-58
2023/10/19 09:48:16;;;;;;;9.55;2.00;;;18.70;99.90;;;;;;4247851;27;20405;-60
2023/10/19 09:50:19;;;;;;;8.13;2.05;;;18.70;99.90;;;;;;4247247;27;20050;-59
2023/10/19 09:52:22;;;;;;;7.10;2.17;;;18.70;99.90;;;;;;4251099;27;20046;-60
2023/10/19 09:54:31;;;;;;;4.72;1.90;;;18.60;99.90;;;;;;4264849;27;20050;-60
2023/10/19 09:56:38;;;;;;;8.30;2.13;;;18.60;99.90;;;;;;4264885;27;20082;-59
2023/10/19 09:58:46;;;;;;;7.90;1.65;;;18.60;99.90;;;;;;4264312;27;20046;-59
2023/10/19 10:00:51;;;;;;;6.15;1.92;;;18.70;99.90;;;;;;4258981;27;20474;-59
2023/10/19 10:02:55;;;;;;;9.73;2.47;;;18.70;99.90;;;;;;4247346;27;20507;-60
2023/10/19 10:04:57;;;;;;;11.07;2.57;;;18.80;99.90;;;;;;4247742;28;20103;-59
2023/10/19 10:07:00;;;;;;;9.23;1.90;;;18.80;99.90;;;;;;4247280;28;20039;-59
2023/10/19 10:09:03;;;;;;;7.63;1.92;;;18.80;99.90;;;;;;4229032;28;20044;-60
2023/10/19 10:11:22;;;;;;;6.82;2.38;;;18.80;99.90;;;;;;4247487;28;20121;-65
2023/10/19 10:13:36;;;;;;;6.10;2.15;;;18.80;99.90;;;;;;4247050;28;20518;-59
2023/10/19 10:15:41;;;;;;;4.65;1.98;;;18.80;99.90;;;;;;4247414;28;20115;-59
2023/10/19 10:17:52;;;;;;;9.70;2.30;;;18.80;99.90;;;;;;4255626;27;20141;-59
2023/10/19 10:19:56;;;;;;;13.10;2.67;;;18.80;99.90;;;;;;4264303;27;20227;-59
2023/10/19 10:22:11;;;;;;;8.10;2.42;;;18.90;99.90;;;;;;4264847;27;20059;-59
2023/10/19 10:24:14;;;;;;;5.22;1.83;;;18.90;99.90;;;;;;4246032;28;20137;-59
2023/10/19 10:26:18;;;;;;;8.02;2.65;;;18.90;99.90;;;;;;4264206;27;20078;-59
2023/10/19 10:28:23;;;;;;;8.82;2.25;;;18.90;99.90;;;;;;4264018;27;20047;-59
2023/10/19 10:30:25;;;;;;;10.63;2.70;;;19.00;99.90;;;;;;4264483;27;20090;-60
2023/10/19 10:32:56;;;;;;;7.93;2.33;;;19.00;99.90;;;;;;4264383;27;20047;-59
2023/10/19 10:35:02;;;;;;;11.27;3.80;;;19.10;99.90;;;;;;4178189;28;20560;-59
2023/10/19 10:37:07;;;;;;;7.57;2.97;;;19.10;99.90;;;;;;4161756;28;20052;-59
2023/10/19 10:39:15;;;;;;;11.27;2.72;;;19.20;99.90;;;;;;4178122;28;20045;-58
2023/10/19 10:41:21;;;;;;;9.27;2.38;;;19.20;99.90;;;;;;4177613;28;20049;-60
2023/10/19 10:43:23;;;;;;;7.43;2.40;;;19.20;99.90;;;;;;4178780;28;20144;-59
2023/10/19 10:45:27;;;;;;;5.45;1.98;;;19.20;99.90;;;;;;4181300;28;20053;-59
2023/10/19 10:47:30;;;;;;;5.63;1.90;;;19.20;99.90;;;;;;4181417;28;20067;-58
2023/10/19 10:49:33;;;;;;;10.02;2.20;;;19.30;99.90;;;;;;4181327;28;20490;-59
2023/10/19 10:51:36;;;;;;;9.75;2.53;;;19.30;99.90;;;;;;4180893;28;20048;-57